createdAt,value
2023-11-01T10:05:21.395Z,100.00
2023-11-01T10:07:48.610Z,100.00
2023-11-01T10:10:18.412Z,100.00
2023-11-01T10:12:49.332Z,100.00
2023-11-01T10:15:21.565Z,100.00
2023-11-01T10:17:49.823Z,100.00
2023-11-01T10:20:25.107Z,100.00
2023-11-01T10:22:57.696Z,100.00
2023-11-01T10:25:26.824Z,100.00
2023-11-01T10:27:58.488Z,100.00
2023-11-01T10:30:26.540Z,100.00
2023-11-01T10:32:59.779Z,100.00
2023-11-01T10:35:30.420Z,100.00
2023-11-01T10:38:01.902Z,100.00
2023-11-01T10:40:30.626Z,100.00
2023-11-01T10:43:05.222Z,100.00
2023-11-01T10:45:33.867Z,100.00
2023-11-01T10:48:04.658Z,100.00
2023-11-01T10:50:37.990Z,100.00
2023-11-01T10:53:06.143Z,100.00
2023-11-01T10:55:33.481Z,100.00
2023-11-01T10:58:01.179Z,100.00
2023-11-01T11:00:39.978Z,100.00
2023-11-01T11:03:28.998Z,100.00
2023-11-01T11:06:05.371Z,100.00
2023-11-01T11:08:33.053Z,100.00
2023-11-01T11:11:20.140Z,100.00
2023-11-01T11:13:52.488Z,100.00
2023-11-01T11:16:22.176Z,100.00
2023-11-01T11:19:10.248Z,100.00
2023-11-01T11:21:46.385Z,100.00
2023-11-01T11:24:40.457Z,100.00
2023-11-01T11:27:29.252Z,100.00
2023-11-01T11:29:56.526Z,100.00
2023-11-01T11:32:24.039Z,100.00
2023-11-01T11:34:51.419Z,100.00
2023-11-01T11:37:29.941Z,100.00
2023-11-01T11:40:08.453Z,100.00
2023-11-01T11:42:52.110Z,100.00
2023-11-01T11:45:30.394Z,100.00
2023-11-01T11:48:00.400Z,100.00
2023-11-01T11:50:29.673Z,100.00
2023-11-01T11:52:57.472Z,100.00
2023-11-01T11:55:47.427Z,100.00
2023-11-01T11:58:14.789Z,100.00
2023-11-01T12:00:46.966Z,100.00
2023-11-01T12:03:25.311Z,100.00
2023-11-01T12:05:58.625Z,100.00
2023-11-01T12:08:39.568Z,100.00
2023-11-01T12:11:06.966Z,100.00
2023-11-01T12:14:00.497Z,100.00
2023-11-01T12:16:29.946Z,100.00
2023-11-01T12:19:19.867Z,100.00
2023-11-01T12:21:49.552Z,100.00
2023-11-01T12:24:19.774Z,100.00
2023-11-01T12:27:05.596Z,100.00
2023-11-01T12:29:43.274Z,100.00
2023-11-01T12:32:27.778Z,100.00
2023-11-01T12:34:54.873Z,100.00
2023-11-01T12:37:28.000Z,100.00
2023-11-01T12:40:13.801Z,100.00
2023-11-01T12:43:06.079Z,100.00
2023-11-01T12:45:34.062Z,100.00
2023-11-01T12:48:01.722Z,100.00
2023-11-01T12:50:37.863Z,100.00
2023-11-01T12:53:05.122Z,100.00
2023-11-01T12:55:38.101Z,100.00
2023-11-01T12:58:08.704Z,100.00
2023-11-01T13:00:35.997Z,100.00
2023-11-01T13:03:03.989Z,100.00
2023-11-01T13:05:34.830Z,100.00
2023-11-01T13:08:06.111Z,100.00
2023-11-01T13:10:40.104Z,100.00
2023-11-01T13:13:13.021Z,100.00
2023-11-01T13:15:40.306Z,100.00
2023-11-01T13:18:07.562Z,100.00
2023-11-01T13:20:35.179Z,100.00
2023-11-01T13:23:02.972Z,100.00
2023-11-01T13:25:30.080Z,100.00
2023-11-01T13:27:57.252Z,100.00
2023-11-01T13:30:24.635Z,100.00
2023-11-01T13:32:51.781Z,100.00
2023-11-01T13:35:18.875Z,100.00
2023-11-01T13:37:49.340Z,100.00
2023-11-01T13:40:16.606Z,100.00
2023-11-01T13:42:44.016Z,100.00
2023-11-01T13:45:11.571Z,96.60
2023-11-01T13:47:39.417Z,94.17
2023-11-01T13:50:10.543Z,92.86
2023-11-01T13:52:38.796Z,80.88
2023-11-01T13:55:06.283Z,81.38
2023-11-01T13:57:33.770Z,91.34
2023-11-01T14:00:01.183Z,87.54
2023-11-01T14:02:28.433Z,87.72
2023-11-01T14:04:55.506Z,88.25
2023-11-01T14:07:28.323Z,87.95
2023-11-01T14:09:55.963Z,89.90
2023-11-01T14:12:23.200Z,95.33
2023-11-01T14:14:50.309Z,96.84
2023-11-01T14:17:17.773Z,100.00
2023-11-01T14:19:48.065Z,97.23
2023-11-01T14:22:15.651Z,95.80
2023-11-01T14:24:46.296Z,98.12
2023-11-01T14:27:14.078Z,100.00
2023-11-01T14:29:41.277Z,100.00
2023-11-01T14:32:08.936Z,100.00
2023-11-01T14:34:36.113Z,100.00
2023-11-01T14:37:06.084Z,100.00
2023-11-01T14:39:34.885Z,100.00
2023-11-01T14:42:02.632Z,100.00
2023-11-01T14:44:30.650Z,100.00
2023-11-01T14:46:58.016Z,100.00
2023-11-01T14:49:25.077Z,100.00
2023-11-01T14:51:52.316Z,100.00
2023-11-01T14:54:20.701Z,100.00
2023-11-01T14:56:47.919Z,100.00
2023-11-01T14:59:17.574Z,100.00
2023-11-01T15:01:49.390Z,100.00
2023-11-01T15:04:16.855Z,100.00
2023-11-01T15:06:45.301Z,100.00
2023-11-01T15:09:14.157Z,100.00
2023-11-01T15:11:45.693Z,100.00
2023-11-01T15:14:12.893Z,100.00
2023-11-01T15:16:40.282Z,100.00
2023-11-01T15:19:07.473Z,100.00
2023-11-01T15:21:35.576Z,100.00
2023-11-01T15:24:04.525Z,100.00
2023-11-01T15:26:35.559Z,100.00
2023-11-01T15:29:04.418Z,100.00
2023-11-01T15:31:32.389Z,100.00
2023-11-01T15:34:00.189Z,100.00
2023-11-01T15:36:28.054Z,100.00
2023-11-01T15:38:55.426Z,100.00
2023-11-01T15:41:23.070Z,100.00
2023-11-01T15:43:50.583Z,100.00
2023-11-01T15:46:18.114Z,100.00
2023-11-01T15:48:46.052Z,100.00
2023-11-01T15:51:13.783Z,100.00
2023-11-01T15:53:41.992Z,100.00
2023-11-01T15:56:11.316Z,100.00
2023-11-01T15:58:41.480Z,100.00
2023-11-01T16:01:09.128Z,100.00
2023-11-01T16:03:36.560Z,100.00
2023-11-01T16:06:05.172Z,100.00
2023-11-01T16:08:32.749Z,100.00
2023-11-01T16:11:00.494Z,100.00
2023-11-01T16:13:28.594Z,100.00
2023-11-01T16:15:56.591Z,100.00
2023-11-01T16:18:23.744Z,100.00
2023-11-01T16:20:50.960Z,100.00
2023-11-01T16:23:18.015Z,100.00
2023-11-01T16:25:45.977Z,100.00
2023-11-01T16:28:13.429Z,100.00
2023-11-01T16:30:40.614Z,100.00
2023-11-01T16:33:07.960Z,100.00
2023-11-01T16:35:35.581Z,100.00
2023-11-01T16:38:02.758Z,100.00
2023-11-01T16:40:30.017Z,100.00
2023-11-01T16:42:57.422Z,100.00
2023-11-01T16:45:25.345Z,100.00
2023-11-01T16:47:53.001Z,100.00
2023-11-01T16:50:20.208Z,100.00
2023-11-01T16:52:47.525Z,100.00
2023-11-01T16:55:15.145Z,100.00
2023-11-01T16:57:42.936Z,100.00
2023-11-01T17:00:11.659Z,100.00
2023-11-01T17:02:47.787Z,100.00
2023-11-01T17:05:17.835Z,100.00
2023-11-01T17:07:44.962Z,100.00
2023-11-01T17:10:12.535Z,100.00
2023-11-01T17:12:40.116Z,100.00
2023-11-01T17:15:07.889Z,100.00
2023-11-01T17:17:37.452Z,100.00
2023-11-01T17:20:06.646Z,100.00
2023-11-01T17:22:46.069Z,100.00
2023-11-01T17:25:45.265Z,100.00
2023-11-01T17:28:38.364Z,100.00
2023-11-01T17:31:13.158Z,100.00
2023-11-01T17:33:44.067Z,100.00
2023-11-01T17:36:24.131Z,100.00
2023-11-01T17:38:55.818Z,100.00
2023-11-01T17:41:53.989Z,100.00
2023-11-01T17:44:32.206Z,100.00
2023-11-01T17:47:14.097Z,100.00
2023-11-01T17:49:48.762Z,100.00
2023-11-01T17:52:44.029Z,100.00
2023-11-01T17:55:17.896Z,100.00
2023-11-01T17:57:48.622Z,100.00
2023-11-01T18:00:20.865Z,100.00
2023-11-01T18:02:54.324Z,100.00
2023-11-01T18:05:44.842Z,100.00
2023-11-01T18:08:17.525Z,100.00
2023-11-01T18:10:56.638Z,100.00
2023-11-01T18:13:26.159Z,100.00
2023-11-01T18:16:00.344Z,100.00
2023-11-01T18:19:00.239Z,100.00
2023-11-01T18:21:32.776Z,100.00
2023-11-01T18:24:08.751Z,100.00
2023-11-01T18:26:36.037Z,100.00
2023-11-01T18:29:07.841Z,100.00
2023-11-01T18:31:45.080Z,100.00
2023-11-01T18:34:14.732Z,100.00
2023-11-01T18:36:51.236Z,100.00
2023-11-01T18:39:26.015Z,100.00
2023-11-01T18:41:56.868Z,100.00
2023-11-01T18:44:46.983Z,100.00
2023-11-01T18:47:24.320Z,100.00
2023-11-01T18:50:20.105Z,100.00
2023-11-01T18:53:10.136Z,100.00
2023-11-01T18:55:38.646Z,100.00
2023-11-01T18:58:06.286Z,100.00
2023-11-01T19:00:52.993Z,100.00
2023-11-01T19:06:26.587Z,100.00
2023-11-01T19:08:56.616Z,100.00
2023-11-01T19:11:26.929Z,100.00
2023-11-01T19:13:58.972Z,100.00
2023-11-01T19:16:31.797Z,100.00
2023-11-01T19:18:59.623Z,100.00
2023-11-01T19:21:30.167Z,100.00
2023-11-01T19:24:02.572Z,100.00
2023-11-01T19:26:35.780Z,100.00
2023-11-01T19:29:03.870Z,100.00
2023-11-01T19:31:50.086Z,100.00
2023-11-01T19:34:21.928Z,100.00
2023-11-01T19:40:36.137Z,100.00
2023-11-01T19:43:07.635Z,100.00
2023-11-01T19:45:41.701Z,100.00
2023-11-01T19:48:42.638Z,100.00
2023-11-01T19:51:30.895Z,100.00
2023-11-01T19:53:58.427Z,100.00
2023-11-01T19:56:27.206Z,100.00
2023-11-01T19:58:54.496Z,100.00
2023-11-01T20:04:51.289Z,100.00
2023-11-01T20:15:44.326Z,100.00
2023-11-01T20:18:11.779Z,100.00
2023-11-01T20:20:47.906Z,100.00
2023-11-01T20:23:15.654Z,100.00
2023-11-01T20:25:44.599Z,100.00
2023-11-01T20:28:28.741Z,100.00
2023-11-01T20:31:03.776Z,100.00
2023-11-01T20:33:39.550Z,100.00
2023-11-01T20:36:16.104Z,100.00
2023-11-01T20:38:53.355Z,100.00
2023-11-01T20:41:25.885Z,100.00
2023-11-01T20:43:53.147Z,100.00
2023-11-01T20:46:20.751Z,100.00
2023-11-01T20:48:48.347Z,100.00
2023-11-01T20:51:21.994Z,100.00
2023-11-01T20:53:52.702Z,100.00
2023-11-01T20:56:23.760Z,100.00
2023-11-01T20:58:54.377Z,100.00
2023-11-01T21:01:27.451Z,100.00
2023-11-01T21:04:13.459Z,100.00
2023-11-01T21:06:55.602Z,100.00
2023-11-01T21:09:36.348Z,100.00
2023-11-01T21:12:06.032Z,100.00
2023-11-01T21:14:37.764Z,100.00
2023-11-01T21:17:07.571Z,100.00
2023-11-01T21:19:35.350Z,100.00
2023-11-01T21:22:02.961Z,100.00
2023-11-01T21:24:30.721Z,100.00
2023-11-01T21:27:05.169Z,100.00
2023-11-01T21:29:41.736Z,100.00
2023-11-01T21:32:11.252Z,100.00
2023-11-01T21:34:38.555Z,100.00
2023-11-01T21:37:05.834Z,100.00
2023-11-01T21:39:34.279Z,100.00
2023-11-01T21:42:03.478Z,100.00
2023-11-01T21:44:39.418Z,100.00
2023-11-01T21:47:13.169Z,100.00
2023-11-01T21:49:41.553Z,100.00
2023-11-01T21:52:23.799Z,100.00
2023-11-01T21:54:53.374Z,100.00
2023-11-01T21:57:31.627Z,100.00
2023-11-01T22:00:10.276Z,100.00
2023-11-01T22:02:51.475Z,100.00
2023-11-01T22:05:19.956Z,100.00
2023-11-01T22:07:47.953Z,100.00
2023-11-01T22:10:17.823Z,100.00
2023-11-01T22:12:50.807Z,100.00
2023-11-01T22:15:21.005Z,100.00
2023-11-01T22:17:48.551Z,100.00
2023-11-01T22:20:23.347Z,100.00
2023-11-01T22:23:01.416Z,100.00
2023-11-01T22:25:40.841Z,100.00
2023-11-01T22:28:12.350Z,100.00
2023-11-01T22:30:39.504Z,100.00
2023-11-01T22:33:12.393Z,100.00
2023-11-01T22:35:47.488Z,100.00
2023-11-01T22:38:17.360Z,100.00
2023-11-01T22:40:47.845Z,100.00
2023-11-01T22:43:16.701Z,100.00
2023-11-01T22:45:44.798Z,100.00
2023-11-01T22:48:13.354Z,100.00
2023-11-01T22:50:40.609Z,100.00
2023-11-01T22:53:10.451Z,100.00
2023-11-01T22:55:41.486Z,100.00
2023-11-01T22:58:11.033Z,100.00
2023-11-01T23:00:38.293Z,100.00
2023-11-01T23:03:06.249Z,100.00
2023-11-01T23:05:34.956Z,100.00
2023-11-01T23:08:02.938Z,100.00
2023-11-01T23:10:32.353Z,100.00
2023-11-01T23:13:01.246Z,100.00
2023-11-01T23:15:28.710Z,100.00
2023-11-01T23:17:57.820Z,100.00
2023-11-01T23:20:25.244Z,100.00
2023-11-01T23:22:53.756Z,100.00
2023-11-01T23:25:32.331Z,100.00
2023-11-01T23:28:22.056Z,100.00
2023-11-01T23:30:54.760Z,100.00
2023-11-01T23:33:38.163Z,100.00
2023-11-01T23:36:13.809Z,100.00
2023-11-01T23:38:48.491Z,100.00
2023-11-01T23:41:27.740Z,100.00
2023-11-01T23:44:02.407Z,100.00
2023-11-01T23:46:29.759Z,100.00
2023-11-01T23:48:59.184Z,100.00
2023-11-01T23:51:58.870Z,100.00
2023-11-01T23:54:28.178Z,100.00
2023-11-01T23:56:55.303Z,100.00
2023-11-01T23:59:22.921Z,100.00
